Reykjavik, Iceland
Current Conditions -  °F | °C
As of 2:00 AM on Sunday 23 Nov 2014 (Local Time) from BIRK Reporting Station
Broken Clouds Broken Clouds  
Wind Chill:   Ceiling: 4500
Heat Index:   Visibility: 6mi
Dew Point:   Wind: 8mph
Humidity: 76%   Direction: 90°E
Pressure: 29.56"   Gusts: NA
Location:  64.14°N, 21.92°W
Report Text: BIRK 230200Z 09007KT 9999 FEW024 BKN045 08/04 Q1001
Loading
Personal Weather Stations






























Interactive Weather Map New forecast layout! Learn more

10-Day Weather Forecast

Advertisements
Track Severe Weather on mobile